sensor_id;sensor_type;location;lat;lon;timestamp;temperature;humidity
59855;DHT22;45732;52.850;6.896;2023-07-31T00:00:33;15.90;99.90
59855;DHT22;45732;52.850;6.896;2023-07-31T00:02:59;15.80;99.90
59855;DHT22;45732;52.850;6.896;2023-07-31T00:05:25;15.80;99.90
59855;DHT22;45732;52.850;6.896;2023-07-31T00:07:51;15.80;99.90
59855;DHT22;45732;52.850;6.896;2023-07-31T00:10:16;15.80;99.90
59855;DHT22;45732;52.850;6.896;2023-07-31T00:12:44;15.80;99.90
59855;DHT22;45732;52.850;6.896;2023-07-31T00:15:10;15.70;99.90
59855;DHT22;45732;52.850;6.896;2023-07-31T00:17:36;15.70;99.90
59855;DHT22;45732;52.850;6.896;2023-07-31T00:20:02;15.70;99.90
59855;DHT22;45732;52.850;6.896;2023-07-31T00:22:28;15.80;99.90
59855;DHT22;45732;52.850;6.896;2023-07-31T00:24:55;15.80;99.90
59855;DHT22;45732;52.850;6.896;2023-07-31T00:27:21;15.80;99.90
59855;DHT22;45732;52.850;6.896;2023-07-31T00:29:46;15.80;99.90
59855;DHT22;45732;52.850;6.896;2023-07-31T00:32:12;15.70;99.90
59855;DHT22;45732;52.850;6.896;2023-07-31T00:34:38;15.70;99.90
59855;DHT22;45732;52.850;6.896;2023-07-31T00:37:04;15.70;99.90
59855;DHT22;45732;52.850;6.896;2023-07-31T00:39:30;15.70;99.90
59855;DHT22;45732;52.850;6.896;2023-07-31T00:41:56;15.70;99.90
59855;DHT22;45732;52.850;6.896;2023-07-31T00:44:22;15.70;99.90
59855;DHT22;45732;52.850;6.896;2023-07-31T00:46:48;15.80;99.90
59855;DHT22;45732;52.850;6.896;2023-07-31T00:49:15;15.70;99.90
59855;DHT22;45732;52.850;6.896;2023-07-31T00:51:41;15.70;99.90
59855;DHT22;45732;52.850;6.896;2023-07-31T00:54:07;15.70;99.90
59855;DHT22;45732;52.850;6.896;2023-07-31T00:56:33;15.70;99.90
59855;DHT22;45732;52.850;6.896;2023-07-31T00:58:59;15.70;99.90
59855;DHT22;45732;52.850;6.896;2023-07-31T01:01:25;15.70;99.90
59855;DHT22;45732;52.850;6.896;2023-07-31T01:03:52;15.70;99.90
59855;DHT22;45732;52.850;6.896;2023-07-31T01:09:42;15.60;99.90
59855;DHT22;45732;52.850;6.896;2023-07-31T01:12:14;15.50;99.90
59855;DHT22;45732;52.850;6.896;2023-07-31T01:14:40;15.60;99.90
59855;DHT22;45732;52.850;6.896;2023-07-31T01:17:05;15.60;99.90
59855;DHT22;45732;52.850;6.896;2023-07-31T01:19:31;15.60;99.90
59855;DHT22;45732;52.850;6.896;2023-07-31T01:27:36;15.50;99.90
59855;DHT22;45732;52.850;6.896;2023-07-31T01:30:21;15.50;99.90
59855;DHT22;45732;52.850;6.896;2023-07-31T01:32:52;15.50;99.90
59855;DHT22;45732;52.850;6.896;2023-07-31T01:35:18;15.50;99.90
59855;DHT22;45732;52.850;6.896;2023-07-31T01:37:45;15.50;99.90
59855;DHT22;45732;52.850;6.896;2023-07-31T01:40:11;15.50;99.90
59855;DHT22;45732;52.850;6.896;2023-07-31T01:42:37;15.50;99.90
59855;DHT22;45732;52.850;6.896;2023-07-31T01:45:03;15.50;99.90
59855;DHT22;45732;52.850;6.896;2023-07-31T01:47:29;15.50;99.90
59855;DHT22;45732;52.850;6.896;2023-07-31T01:49:54;15.40;99.90
59855;DHT22;45732;52.850;6.896;2023-07-31T01:52:20;15.40;99.90
59855;DHT22;45732;52.850;6.896;2023-07-31T01:54:46;15.40;99.90
59855;DHT22;45732;52.850;6.896;2023-07-31T01:57:12;15.40;99.90
59855;DHT22;45732;52.850;6.896;2023-07-31T01:59:38;15.40;99.90
59855;DHT22;45732;52.850;6.896;2023-07-31T02:02:03;15.40;99.90
59855;DHT22;45732;52.850;6.896;2023-07-31T02:04:29;15.40;99.90
59855;DHT22;45732;52.850;6.896;2023-07-31T02:06:55;15.40;99.90
59855;DHT22;45732;52.850;6.896;2023-07-31T02:09:20;15.40;99.90
59855;DHT22;45732;52.850;6.896;2023-07-31T02:11:46;15.40;99.90
59855;DHT22;45732;52.850;6.896;2023-07-31T02:14:12;15.40;99.90
59855;DHT22;45732;52.850;6.896;2023-07-31T02:16:38;15.40;99.90
59855;DHT22;45732;52.850;6.896;2023-07-31T02:19:03;15.50;99.90
59855;DHT22;45732;52.850;6.896;2023-07-31T02:21:29;15.40;99.90
59855;DHT22;45732;52.850;6.896;2023-07-31T02:23:55;15.40;99.90
59855;DHT22;45732;52.850;6.896;2023-07-31T02:26:20;15.50;99.90
59855;DHT22;45732;52.850;6.896;2023-07-31T02:28:46;15.50;99.90
59855;DHT22;45732;52.850;6.896;2023-07-31T02:31:12;15.50;99.90
59855;DHT22;45732;52.850;6.896;2023-07-31T02:33:37;15.40;99.90
59855;DHT22;45732;52.850;6.896;2023-07-31T02:36:03;15.40;99.90
59855;DHT22;45732;52.850;6.896;2023-07-31T02:38:29;15.40;99.90
59855;DHT22;45732;52.850;6.896;2023-07-31T02:40:55;15.40;99.90
59855;DHT22;45732;52.850;6.896;2023-07-31T02:43:20;15.50;99.90
59855;DHT22;45732;52.850;6.896;2023-07-31T02:45:51;15.50;99.90
59855;DHT22;45732;52.850;6.896;2023-07-31T02:48:17;15.50;99.90
59855;DHT22;45732;52.850;6.896;2023-07-31T02:50:42;15.50;99.90
59855;DHT22;45732;52.850;6.896;2023-07-31T02:53:08;15.50;99.90
59855;DHT22;45732;52.850;6.896;2023-07-31T02:55:34;15.50;99.90
59855;DHT22;45732;52.850;6.896;2023-07-31T02:57:59;15.50;99.90
59855;DHT22;45732;52.850;6.896;2023-07-31T03:00:25;15.50;99.90
59855;DHT22;45732;52.850;6.896;2023-07-31T03:02:51;15.50;99.90
59855;DHT22;45732;52.850;6.896;2023-07-31T03:05:17;15.60;99.90
59855;DHT22;45732;52.850;6.896;2023-07-31T03:07:42;15.60;99.90
59855;DHT22;45732;52.850;6.896;2023-07-31T03:10:08;15.50;99.90
59855;DHT22;45732;52.850;6.896;2023-07-31T03:12:34;15.60;99.90
59855;DHT22;45732;52.850;6.896;2023-07-31T03:15:00;15.60;99.90
59855;DHT22;45732;52.850;6.896;2023-07-31T03:17:26;15.60;99.90
59855;DHT22;45732;52.850;6.896;2023-07-31T03:19:51;15.60;99.90
59855;DHT22;45732;52.850;6.896;2023-07-31T03:22:17;15.60;99.90
59855;DHT22;45732;52.850;6.896;2023-07-31T03:24:43;15.60;99.90
59855;DHT22;45732;52.850;6.896;2023-07-31T03:27:08;15.60;99.90
59855;DHT22;45732;52.850;6.896;2023-07-31T03:29:34;15.60;99.90
59855;DHT22;45732;52.850;6.896;2023-07-31T03:32:00;15.70;99.90
59855;DHT22;45732;52.850;6.896;2023-07-31T03:34:26;15.60;99.90
59855;DHT22;45732;52.850;6.896;2023-07-31T03:36:52;15.70;99.90
59855;DHT22;45732;52.850;6.896;2023-07-31T03:39:18;15.70;99.90
59855;DHT22;45732;52.850;6.896;2023-07-31T03:41:44;15.70;99.90
59855;DHT22;45732;52.850;6.896;2023-07-31T03:44:10;15.70;99.90
59855;DHT22;45732;52.850;6.896;2023-07-31T03:46:35;15.80;99.90
59855;DHT22;45732;52.850;6.896;2023-07-31T03:49:01;15.70;99.90
59855;DHT22;45732;52.850;6.896;2023-07-31T03:51:27;15.70;99.90
59855;DHT22;45732;52.850;6.896;2023-07-31T03:53:53;15.70;99.90
59855;DHT22;45732;52.850;6.896;2023-07-31T03:56:19;15.80;99.90
59855;DHT22;45732;52.850;6.896;2023-07-31T03:58:44;15.80;99.90
59855;DHT22;45732;52.850;6.896;2023-07-31T04:01:10;15.80;99.90
59855;DHT22;45732;52.850;6.896;2023-07-31T04:03:36;15.70;99.90
59855;DHT22;45732;52.850;6.896;2023-07-31T04:06:01;15.80;99.90
59855;DHT22;45732;52.850;6.896;2023-07-31T04:08:27;15.80;99.90
59855;DHT22;45732;52.850;6.896;2023-07-31T04:10:53;15.80;99.90
59855;DHT22;45732;52.850;6.896;2023-07-31T04:13:19;15.80;99.90
59855;DHT22;45732;52.850;6.896;2023-07-31T04:15:51;15.80;99.90
59855;DHT22;45732;52.850;6.896;2023-07-31T04:18:17;15.80;99.90
59855;DHT22;45732;52.850;6.896;2023-07-31T04:20:42;15.80;99.90
59855;DHT22;45732;52.850;6.896;2023-07-31T04:23:08;15.80;99.90
59855;DHT22;45732;52.850;6.896;2023-07-31T04:25:34;15.90;99.90
59855;DHT22;45732;52.850;6.896;2023-07-31T04:28:00;15.90;99.90
59855;DHT22;45732;52.850;6.896;2023-07-31T04:30:26;15.90;99.90
59855;DHT22;45732;52.850;6.896;2023-07-31T04:32:52;15.90;99.90
59855;DHT22;45732;52.850;6.896;2023-07-31T04:35:18;15.90;99.90
59855;DHT22;45732;52.850;6.896;2023-07-31T04:37:43;15.90;99.90
59855;DHT22;45732;52.850;6.896;2023-07-31T04:40:11;15.90;99.90
59855;DHT22;45732;52.850;6.896;2023-07-31T04:42:37;15.90;99.90
59855;DHT22;45732;52.850;6.896;2023-07-31T04:45:03;15.90;99.90
59855;DHT22;45732;52.850;6.896;2023-07-31T04:47:29;16.00;99.90
59855;DHT22;45732;52.850;6.896;2023-07-31T04:49:55;15.90;99.90
59855;DHT22;45732;52.850;6.896;2023-07-31T04:52:20;16.00;99.90
59855;DHT22;45732;52.850;6.896;2023-07-31T04:54:46;16.00;99.90
59855;DHT22;45732;52.850;6.896;2023-07-31T04:57:12;16.00;99.90
59855;DHT22;45732;52.850;6.896;2023-07-31T04:59:37;16.00;99.90
59855;DHT22;45732;52.850;6.896;2023-07-31T05:02:03;16.00;99.90
59855;DHT22;45732;52.850;6.896;2023-07-31T05:04:29;16.00;99.90
59855;DHT22;45732;52.850;6.896;2023-07-31T05:06:55;16.10;99.90
59855;DHT22;45732;52.850;6.896;2023-07-31T05:09:21;16.00;99.90
59855;DHT22;45732;52.850;6.896;2023-07-31T05:11:48;16.10;99.90
59855;DHT22;45732;52.850;6.896;2023-07-31T05:14:13;16.10;99.90
59855;DHT22;45732;52.850;6.896;2023-07-31T05:16:39;16.10;99.90
59855;DHT22;45732;52.850;6.896;2023-07-31T05:19:05;16.10;99.90
59855;DHT22;45732;52.850;6.896;2023-07-31T05:21:31;16.10;99.90
59855;DHT22;45732;52.850;6.896;2023-07-31T05:23:56;16.10;99.90
59855;DHT22;45732;52.850;6.896;2023-07-31T05:26:22;16.10;99.90
59855;DHT22;45732;52.850;6.896;2023-07-31T05:28:48;16.10;99.90
59855;DHT22;45732;52.850;6.896;2023-07-31T05:31:13;16.10;99.90
59855;DHT22;45732;52.850;6.896;2023-07-31T05:33:39;16.20;99.90
59855;DHT22;45732;52.850;6.896;2023-07-31T05:36:05;16.20;99.90
59855;DHT22;45732;52.850;6.896;2023-07-31T05:38:31;16.20;99.90
59855;DHT22;45732;52.850;6.896;2023-07-31T05:40:56;16.20;99.90
59855;DHT22;45732;52.850;6.896;2023-07-31T05:43:22;16.20;99.90
59855;DHT22;45732;52.850;6.896;2023-07-31T05:45:48;16.30;99.90
59855;DHT22;45732;52.850;6.896;2023-07-31T05:48:13;16.30;99.90
59855;DHT22;45732;52.850;6.896;2023-07-31T05:50:39;16.30;99.90
59855;DHT22;45732;52.850;6.896;2023-07-31T05:53:06;16.30;99.90
59855;DHT22;45732;52.850;6.896;2023-07-31T05:55:32;16.20;99.90
59855;DHT22;45732;52.850;6.896;2023-07-31T05:57:57;16.30;99.90
59855;DHT22;45732;52.850;6.896;2023-07-31T06:00:23;16.30;99.90
59855;DHT22;45732;52.850;6.896;2023-07-31T06:02:49;16.30;99.90
59855;DHT22;45732;52.850;6.896;2023-07-31T06:05:15;16.30;99.90
59855;DHT22;45732;52.850;6.896;2023-07-31T06:07:40;16.40;99.90
59855;DHT22;45732;52.850;6.896;2023-07-31T06:10:07;16.30;99.90
59855;DHT22;45732;52.850;6.896;2023-07-31T06:12:34;16.30;99.90
59855;DHT22;45732;52.850;6.896;2023-07-31T06:15:00;16.40;99.90
59855;DHT22;45732;52.850;6.896;2023-07-31T06:17:26;16.30;99.90
59855;DHT22;45732;52.850;6.896;2023-07-31T06:19:52;16.40;99.90
59855;DHT22;45732;52.850;6.896;2023-07-31T06:22:18;16.30;99.90
59855;DHT22;45732;52.850;6.896;2023-07-31T06:24:44;16.40;99.90
59855;DHT22;45732;52.850;6.896;2023-07-31T06:27:10;16.30;99.90
59855;DHT22;45732;52.850;6.896;2023-07-31T06:29:37;16.30;99.90
59855;DHT22;45732;52.850;6.896;2023-07-31T06:32:03;16.30;99.90
59855;DHT22;45732;52.850;6.896;2023-07-31T06:34:29;16.40;99.90
59855;DHT22;45732;52.850;6.896;2023-07-31T06:36:56;16.30;99.90
59855;DHT22;45732;52.850;6.896;2023-07-31T06:39:22;16.40;99.90
59855;DHT22;45732;52.850;6.896;2023-07-31T06:41:47;16.40;99.90
59855;DHT22;45732;52.850;6.896;2023-07-31T06:44:13;16.40;99.90
59855;DHT22;45732;52.850;6.896;2023-07-31T06:46:39;16.40;99.90
59855;DHT22;45732;52.850;6.896;2023-07-31T06:49:05;16.40;99.90
59855;DHT22;45732;52.850;6.896;2023-07-31T06:51:30;16.40;99.90
59855;DHT22;45732;52.850;6.896;2023-07-31T06:53:57;16.40;99.90
59855;DHT22;45732;52.850;6.896;2023-07-31T06:56:23;16.40;99.90
59855;DHT22;45732;52.850;6.896;2023-07-31T06:58:49;16.40;99.90
59855;DHT22;45732;52.850;6.896;2023-07-31T07:01:15;16.50;99.90
59855;DHT22;45732;52.850;6.896;2023-07-31T07:03:40;16.40;99.90
59855;DHT22;45732;52.850;6.896;2023-07-31T07:06:06;16.50;99.90
59855;DHT22;45732;52.850;6.896;2023-07-31T07:08:32;16.40;99.90
59855;DHT22;45732;52.850;6.896;2023-07-31T07:10:58;16.40;99.90
59855;DHT22;45732;52.850;6.896;2023-07-31T07:13:24;16.40;99.90
59855;DHT22;45732;52.850;6.896;2023-07-31T07:15:50;16.40;99.90
59855;DHT22;45732;52.850;6.896;2023-07-31T07:18:17;16.50;99.90
59855;DHT22;45732;52.850;6.896;2023-07-31T07:20:52;16.40;99.90
59855;DHT22;45732;52.850;6.896;2023-07-31T07:23:19;16.40;99.90
59855;DHT22;45732;52.850;6.896;2023-07-31T07:25:46;16.50;99.90
59855;DHT22;45732;52.850;6.896;2023-07-31T07:28:12;16.50;99.90
59855;DHT22;45732;52.850;6.896;2023-07-31T07:30:38;16.40;99.90
59855;DHT22;45732;52.850;6.896;2023-07-31T07:33:03;16.50;99.90
59855;DHT22;45732;52.850;6.896;2023-07-31T07:35:29;16.40;99.90
59855;DHT22;45732;52.850;6.896;2023-07-31T07:37:55;16.40;99.90
59855;DHT22;45732;52.850;6.896;2023-07-31T07:40:22;16.40;99.90
59855;DHT22;45732;52.850;6.896;2023-07-31T07:42:48;16.50;99.90
59855;DHT22;45732;52.850;6.896;2023-07-31T07:45:13;16.50;99.90
59855;DHT22;45732;52.850;6.896;2023-07-31T07:47:41;16.60;99.90
59855;DHT22;45732;52.850;6.896;2023-07-31T07:50:07;16.60;99.90
59855;DHT22;45732;52.850;6.896;2023-07-31T07:52:33;16.60;99.90
59855;DHT22;45732;52.850;6.896;2023-07-31T07:54:59;16.50;99.90
59855;DHT22;45732;52.850;6.896;2023-07-31T07:57:26;16.60;99.90
59855;DHT22;45732;52.850;6.896;2023-07-31T07:59:52;16.60;99.90
59855;DHT22;45732;52.850;6.896;2023-07-31T08:02:18;16.60;99.90
59855;DHT22;45732;52.850;6.896;2023-07-31T08:04:43;16.50;99.90
59855;DHT22;45732;52.850;6.896;2023-07-31T08:07:13;16.60;99.90
59855;DHT22;45732;52.850;6.896;2023-07-31T08:09:39;16.60;99.90
59855;DHT22;45732;52.850;6.896;2023-07-31T08:12:05;16.60;99.90
59855;DHT22;45732;52.850;6.896;2023-07-31T08:14:31;16.70;99.90
59855;DHT22;45732;52.850;6.896;2023-07-31T08:16:57;16.60;99.90
59855;DHT22;45732;52.850;6.896;2023-07-31T08:19:23;16.60;99.90
59855;DHT22;45732;52.850;6.896;2023-07-31T08:21:49;16.70;99.90
59855;DHT22;45732;52.850;6.896;2023-07-31T08:24:14;16.70;99.90
59855;DHT22;45732;52.850;6.896;2023-07-31T08:26:40;16.70;99.90
59855;DHT22;45732;52.850;6.896;2023-07-31T08:29:06;16.70;99.90
59855;DHT22;45732;52.850;6.896;2023-07-31T08:31:32;16.80;99.90
59855;DHT22;45732;52.850;6.896;2023-07-31T08:33:57;16.70;99.90
59855;DHT22;45732;52.850;6.896;2023-07-31T08:36:23;16.70;99.90
59855;DHT22;45732;52.850;6.896;2023-07-31T08:38:49;16.70;99.90
59855;DHT22;45732;52.850;6.896;2023-07-31T08:41:16;16.80;99.90
59855;DHT22;45732;52.850;6.896;2023-07-31T08:43:49;16.70;99.90
59855;DHT22;45732;52.850;6.896;2023-07-31T08:46:15;16.80;99.90
59855;DHT22;45732;52.850;6.896;2023-07-31T08:48:42;16.70;99.90
59855;DHT22;45732;52.850;6.896;2023-07-31T08:51:08;16.70;99.90
59855;DHT22;45732;52.850;6.896;2023-07-31T08:53:34;16.70;99.90
59855;DHT22;45732;52.850;6.896;2023-07-31T08:56:00;16.70;99.90
59855;DHT22;45732;52.850;6.896;2023-07-31T08:58:30;16.80;99.90
59855;DHT22;45732;52.850;6.896;2023-07-31T09:00:56;16.80;99.90
59855;DHT22;45732;52.850;6.896;2023-07-31T09:03:24;16.90;99.90
59855;DHT22;45732;52.850;6.896;2023-07-31T09:05:51;16.90;99.90
59855;DHT22;45732;52.850;6.896;2023-07-31T09:08:21;16.90;99.90
59855;DHT22;45732;52.850;6.896;2023-07-31T09:10:47;17.00;99.90
59855;DHT22;45732;52.850;6.896;2023-07-31T09:13:14;17.00;99.90
59855;DHT22;45732;52.850;6.896;2023-07-31T09:15:40;17.00;99.90
59855;DHT22;45732;52.850;6.896;2023-07-31T09:18:08;17.10;99.90
59855;DHT22;45732;52.850;6.896;2023-07-31T09:20:35;17.10;99.90
59855;DHT22;45732;52.850;6.896;2023-07-31T09:23:07;17.20;99.90
59855;DHT22;45732;52.850;6.896;2023-07-31T09:25:33;17.30;99.90
59855;DHT22;45732;52.850;6.896;2023-07-31T09:28:04;17.30;99.90
59855;DHT22;45732;52.850;6.896;2023-07-31T09:30:31;17.30;99.90
59855;DHT22;45732;52.850;6.896;2023-07-31T09:33:02;17.30;99.90
59855;DHT22;45732;52.850;6.896;2023-07-31T09:35:35;17.30;99.90
59855;DHT22;45732;52.850;6.896;2023-07-31T09:38:06;17.40;99.90
59855;DHT22;45732;52.850;6.896;2023-07-31T09:40:34;17.40;99.90
59855;DHT22;45732;52.850;6.896;2023-07-31T09:43:05;17.40;99.90
59855;DHT22;45732;52.850;6.896;2023-07-31T09:45:37;17.50;99.90
59855;DHT22;45732;52.850;6.896;2023-07-31T09:48:10;17.40;99.90
59855;DHT22;45732;52.850;6.896;2023-07-31T09:50:38;17.50;99.90
59855;DHT22;45732;52.850;6.896;2023-07-31T09:53:05;17.40;99.90
59855;DHT22;45732;52.850;6.896;2023-07-31T09:55:32;17.50;99.90
59855;DHT22;45732;52.850;6.896;2023-07-31T09:57:58;17.50;99.90
59855;DHT22;45732;52.850;6.896;2023-07-31T10:00:24;17.50;99.90
59855;DHT22;45732;52.850;6.896;2023-07-31T10:02:53;17.60;99.90
59855;DHT22;45732;52.850;6.896;2023-07-31T10:05:19;17.70;99.90
59855;DHT22;45732;52.850;6.896;2023-07-31T10:07:54;17.60;99.90
59855;DHT22;45732;52.850;6.896;2023-07-31T10:10:22;17.80;99.90
59855;DHT22;45732;52.850;6.896;2023-07-31T10:12:49;17.70;99.90
59855;DHT22;45732;52.850;6.896;2023-07-31T10:15:15;17.70;99.90
59855;DHT22;45732;52.850;6.896;2023-07-31T10:17:42;17.70;99.90
59855;DHT22;45732;52.850;6.896;2023-07-31T10:20:08;17.70;99.90
59855;DHT22;45732;52.850;6.896;2023-07-31T10:22:35;17.80;99.90
59855;DHT22;45732;52.850;6.896;2023-07-31T10:25:01;17.70;99.90
59855;DHT22;45732;52.850;6.896;2023-07-31T10:27:27;17.80;99.90
59855;DHT22;45732;52.850;6.896;2023-07-31T10:29:55;17.70;99.90
59855;DHT22;45732;52.850;6.896;2023-07-31T10:32:22;17.80;99.90
59855;DHT22;45732;52.850;6.896;2023-07-31T10:34:50;17.80;99.90
59855;DHT22;45732;52.850;6.896;2023-07-31T10:37:24;17.70;99.90
59855;DHT22;45732;52.850;6.896;2023-07-31T10:40:11;17.70;99.90
59855;DHT22;45732;52.850;6.896;2023-07-31T10:42:48;17.70;99.90
59855;DHT22;45732;52.850;6.896;2023-07-31T10:45:44;17.80;99.90
59855;DHT22;45732;52.850;6.896;2023-07-31T10:48:13;17.90;99.90
59855;DHT22;45732;52.850;6.896;2023-07-31T10:50:48;18.00;99.90
59855;DHT22;45732;52.850;6.896;2023-07-31T10:53:26;18.00;99.90
59855;DHT22;45732;52.850;6.896;2023-07-31T10:55:52;18.00;99.90
59855;DHT22;45732;52.850;6.896;2023-07-31T10:58:21;18.20;99.90
59855;DHT22;45732;52.850;6.896;2023-07-31T11:00:47;18.20;99.90
59855;DHT22;45732;52.850;6.896;2023-07-31T11:03:16;18.20;99.90
59855;DHT22;45732;52.850;6.896;2023-07-31T11:08:32;18.20;99.90
59855;DHT22;45732;52.850;6.896;2023-07-31T11:11:07;18.30;99.90
59855;DHT22;45732;52.850;6.896;2023-07-31T11:13:40;18.40;99.90
59855;DHT22;45732;52.850;6.896;2023-07-31T11:16:06;18.30;99.90
59855;DHT22;45732;52.850;6.896;2023-07-31T11:18:32;18.40;99.90
59855;DHT22;45732;52.850;6.896;2023-07-31T11:20:58;18.40;99.90
59855;DHT22;45732;52.850;6.896;2023-07-31T11:23:24;18.50;99.90
59855;DHT22;45732;52.850;6.896;2023-07-31T11:25:50;18.60;99.90
59855;DHT22;45732;52.850;6.896;2023-07-31T11:28:17;18.70;99.90
59855;DHT22;45732;52.850;6.896;2023-07-31T11:30:44;18.70;99.90
59855;DHT22;45732;52.850;6.896;2023-07-31T11:33:11;18.70;99.90
59855;DHT22;45732;52.850;6.896;2023-07-31T11:35:46;18.60;99.90
59855;DHT22;45732;52.850;6.896;2023-07-31T11:40:48;18.70;99.90
59855;DHT22;45732;52.850;6.896;2023-07-31T11:43:13;18.60;99.90
59855;DHT22;45732;52.850;6.896;2023-07-31T11:45:47;18.60;99.90
59855;DHT22;45732;52.850;6.896;2023-07-31T11:48:27;18.60;99.90
59855;DHT22;45732;52.850;6.896;2023-07-31T11:50:56;18.50;99.90
59855;DHT22;45732;52.850;6.896;2023-07-31T11:53:44;18.40;99.90
59855;DHT22;45732;52.850;6.896;2023-07-31T11:56:13;18.40;99.90
59855;DHT22;45732;52.850;6.896;2023-07-31T11:58:40;18.40;99.90
59855;DHT22;45732;52.850;6.896;2023-07-31T12:01:06;18.40;99.90
59855;DHT22;45732;52.850;6.896;2023-07-31T12:03:33;18.30;99.90
59855;DHT22;45732;52.850;6.896;2023-07-31T12:06:00;18.30;99.90
59855;DHT22;45732;52.850;6.896;2023-07-31T12:08:26;18.30;99.90
59855;DHT22;45732;52.850;6.896;2023-07-31T12:10:53;18.40;99.90
59855;DHT22;45732;52.850;6.896;2023-07-31T12:13:24;18.40;99.90
59855;DHT22;45732;52.850;6.896;2023-07-31T12:15:58;18.50;99.90
59855;DHT22;45732;52.850;6.896;2023-07-31T12:18:26;18.60;99.90
59855;DHT22;45732;52.850;6.896;2023-07-31T12:20:57;18.70;99.90
59855;DHT22;45732;52.850;6.896;2023-07-31T12:23:28;18.60;99.90
59855;DHT22;45732;52.850;6.896;2023-07-31T12:26:14;18.70;99.90
59855;DHT22;45732;52.850;6.896;2023-07-31T12:28:46;18.70;99.90
59855;DHT22;45732;52.850;6.896;2023-07-31T12:31:14;18.80;99.90
59855;DHT22;45732;52.850;6.896;2023-07-31T12:33:41;18.80;99.90
59855;DHT22;45732;52.850;6.896;2023-07-31T12:36:15;18.90;99.90
59855;DHT22;45732;52.850;6.896;2023-07-31T12:38:44;18.90;99.90
59855;DHT22;45732;52.850;6.896;2023-07-31T12:41:17;18.90;99.90
59855;DHT22;45732;52.850;6.896;2023-07-31T12:43:44;18.90;99.90
59855;DHT22;45732;52.850;6.896;2023-07-31T12:46:11;18.80;99.90
59855;DHT22;45732;52.850;6.896;2023-07-31T12:48:38;18.80;99.90
59855;DHT22;45732;52.850;6.896;2023-07-31T12:51:04;18.90;99.90
59855;DHT22;45732;52.850;6.896;2023-07-31T12:53:32;18.90;99.90
59855;DHT22;45732;52.850;6.896;2023-07-31T12:55:58;18.90;99.90
59855;DHT22;45732;52.850;6.896;2023-07-31T12:58:24;18.90;99.90
59855;DHT22;45732;52.850;6.896;2023-07-31T13:00:51;18.90;99.90
59855;DHT22;45732;52.850;6.896;2023-07-31T13:03:16;19.00;99.90
59855;DHT22;45732;52.850;6.896;2023-07-31T13:05:43;19.00;99.90
59855;DHT22;45732;52.850;6.896;2023-07-31T13:08:08;19.10;99.90
59855;DHT22;45732;52.850;6.896;2023-07-31T13:10:34;19.20;99.90
59855;DHT22;45732;52.850;6.896;2023-07-31T13:13:00;19.30;99.90
59855;DHT22;45732;52.850;6.896;2023-07-31T13:15:26;19.60;99.90
59855;DHT22;45732;52.850;6.896;2023-07-31T13:17:51;19.70;99.90
59855;DHT22;45732;52.850;6.896;2023-07-31T13:20:17;19.80;99.90
59855;DHT22;45732;52.850;6.896;2023-07-31T13:22:43;19.80;99.90
59855;DHT22;45732;52.850;6.896;2023-07-31T13:25:09;19.70;99.90
59855;DHT22;45732;52.850;6.896;2023-07-31T13:27:35;19.70;99.90
59855;DHT22;45732;52.850;6.896;2023-07-31T13:30:01;19.60;99.90
59855;DHT22;45732;52.850;6.896;2023-07-31T13:32:26;19.60;99.90
59855;DHT22;45732;52.850;6.896;2023-07-31T13:34:52;19.50;99.90
59855;DHT22;45732;52.850;6.896;2023-07-31T13:37:18;19.50;99.90
59855;DHT22;45732;52.850;6.896;2023-07-31T13:39:44;19.40;99.90
59855;DHT22;45732;52.850;6.896;2023-07-31T13:42:10;19.50;99.90
59855;DHT22;45732;52.850;6.896;2023-07-31T13:44:39;19.40;99.90
59855;DHT22;45732;52.850;6.896;2023-07-31T13:47:05;19.40;99.90
59855;DHT22;45732;52.850;6.896;2023-07-31T13:49:31;19.30;99.90
59855;DHT22;45732;52.850;6.896;2023-07-31T13:51:57;19.30;99.90
59855;DHT22;45732;52.850;6.896;2023-07-31T13:54:23;19.30;99.90
59855;DHT22;45732;52.850;6.896;2023-07-31T13:56:49;19.30;99.90
59855;DHT22;45732;52.850;6.896;2023-07-31T13:59:15;19.30;99.90
59855;DHT22;45732;52.850;6.896;2023-07-31T14:01:43;19.30;99.90
59855;DHT22;45732;52.850;6.896;2023-07-31T14:04:08;19.40;99.90
59855;DHT22;45732;52.850;6.896;2023-07-31T14:06:34;19.50;99.90
59855;DHT22;45732;52.850;6.896;2023-07-31T14:09:00;19.60;99.90
59855;DHT22;45732;52.850;6.896;2023-07-31T14:11:26;19.60;99.90
59855;DHT22;45732;52.850;6.896;2023-07-31T14:13:52;19.60;99.90
59855;DHT22;45732;52.850;6.896;2023-07-31T14:16:18;19.60;99.90
59855;DHT22;45732;52.850;6.896;2023-07-31T14:18:44;19.60;99.90
59855;DHT22;45732;52.850;6.896;2023-07-31T14:21:11;19.50;99.90
59855;DHT22;45732;52.850;6.896;2023-07-31T14:23:37;19.60;99.90
59855;DHT22;45732;52.850;6.896;2023-07-31T14:26:03;19.60;99.90
59855;DHT22;45732;52.850;6.896;2023-07-31T14:28:29;19.60;99.90
59855;DHT22;45732;52.850;6.896;2023-07-31T14:30:55;19.60;99.90
59855;DHT22;45732;52.850;6.896;2023-07-31T14:33:21;19.60;99.90
59855;DHT22;45732;52.850;6.896;2023-07-31T14:35:47;19.60;99.90
59855;DHT22;45732;52.850;6.896;2023-07-31T14:38:12;19.60;99.90
59855;DHT22;45732;52.850;6.896;2023-07-31T14:40:38;19.60;99.90
59855;DHT22;45732;52.850;6.896;2023-07-31T14:43:04;19.70;99.90
59855;DHT22;45732;52.850;6.896;2023-07-31T14:45:30;19.70;99.90
59855;DHT22;45732;52.850;6.896;2023-07-31T14:47:55;19.80;99.90
59855;DHT22;45732;52.850;6.896;2023-07-31T14:50:21;19.90;99.90
59855;DHT22;45732;52.850;6.896;2023-07-31T14:52:48;19.90;99.90
59855;DHT22;45732;52.850;6.896;2023-07-31T14:55:14;19.80;99.90
59855;DHT22;45732;52.850;6.896;2023-07-31T14:57:39;19.90;99.90
59855;DHT22;45732;52.850;6.896;2023-07-31T15:00:06;19.90;99.90
59855;DHT22;45732;52.850;6.896;2023-07-31T15:02:39;19.90;99.90
59855;DHT22;45732;52.850;6.896;2023-07-31T15:05:06;19.90;99.90
59855;DHT22;45732;52.850;6.896;2023-07-31T15:07:32;19.90;99.90
59855;DHT22;45732;52.850;6.896;2023-07-31T15:09:59;19.80;99.90
59855;DHT22;45732;52.850;6.896;2023-07-31T15:12:25;19.80;99.90
59855;DHT22;45732;52.850;6.896;2023-07-31T15:14:51;19.80;99.90
59855;DHT22;45732;52.850;6.896;2023-07-31T15:17:18;19.70;99.90
59855;DHT22;45732;52.850;6.896;2023-07-31T15:19:43;19.80;99.90
59855;DHT22;45732;52.850;6.896;2023-07-31T15:22:09;19.70;99.90
59855;DHT22;45732;52.850;6.896;2023-07-31T15:24:35;19.70;99.90
59855;DHT22;45732;52.850;6.896;2023-07-31T15:27:01;19.60;99.90
59855;DHT22;45732;52.850;6.896;2023-07-31T15:29:29;19.60;99.90
59855;DHT22;45732;52.850;6.896;2023-07-31T15:31:55;19.50;99.90
59855;DHT22;45732;52.850;6.896;2023-07-31T15:34:21;19.50;99.90
59855;DHT22;45732;52.850;6.896;2023-07-31T15:36:47;19.50;99.90
59855;DHT22;45732;52.850;6.896;2023-07-31T15:39:13;19.50;99.90
59855;DHT22;45732;52.850;6.896;2023-07-31T15:41:39;19.50;99.90